Terminal Aerodrome Forecast
Issued by NWS Blacksburg, VA

Home | Current Version | Previous Version | Text Only | Print | Product List | Glossary On
Versions: 1 2 3 4 5 6 7 8 9 10 11 12 13 14 15 16 17 18 19 20 21 22 23 24 25 26 27 28 29
000
FTUS41 KRNK 271123
TAFDAN
TAF
KDAN 271123Z 2712/2812 30004KT P6SM SKC
      TEMPO 2712/2713 4SM BR
     FM271800 33012G18KT P6SM SKC
     FM272300 32007KT P6SM SKC=

USA.gov is the U.S. government's official web portal to all federal, state and local government web resources and services.